createdAt,value
2024-03-03T00:02:38.376Z,8.91
2024-03-03T00:07:41.195Z,8.85
2024-03-03T00:12:44.031Z,8.81
2024-03-03T00:17:48.236Z,8.73
2024-03-03T00:22:51.042Z,8.66
2024-03-03T00:27:53.798Z,8.63
2024-03-03T00:32:57.949Z,8.56
2024-03-03T00:38:00.719Z,8.47
2024-03-03T00:43:03.549Z,8.42
2024-03-03T00:48:08.639Z,8.42
2024-03-03T00:53:11.401Z,8.34
2024-03-03T00:58:14.379Z,8.31
2024-03-03T01:03:18.678Z,8.26
2024-03-03T01:08:21.462Z,8.26
2024-03-03T01:13:24.358Z,8.16
2024-03-03T01:18:29.213Z,8.16
2024-03-03T01:23:32.024Z,8.12
2024-03-03T01:28:34.879Z,8.08
2024-03-03T01:33:39.075Z,8.05
2024-03-03T01:38:41.897Z,8.04
2024-03-03T01:43:44.787Z,8.02
2024-03-03T01:48:49.027Z,8.03
2024-03-03T01:53:54.351Z,7.94
2024-03-03T01:58:58.091Z,7.94
2024-03-03T02:09:09.359Z,7.90
2024-03-03T02:14:12.188Z,7.93
2024-03-03T02:19:21.493Z,7.85
2024-03-03T02:24:25.981Z,7.86
2024-03-03T02:29:43.194Z,7.90
2024-03-03T02:35:06.244Z,7.87
2024-03-03T02:40:30.200Z,7.80
2024-03-03T02:45:53.284Z,7.76
2024-03-03T02:51:23.214Z,7.74
2024-03-03T02:56:47.216Z,7.74
2024-03-03T03:02:10.240Z,7.65
2024-03-03T03:07:33.233Z,7.68
2024-03-03T03:12:58.263Z,7.65
2024-03-03T03:18:21.175Z,7.68
2024-03-03T03:23:51.190Z,7.68
2024-03-03T03:29:15.191Z,7.66
2024-03-03T03:34:38.211Z,7.68
2024-03-03T03:40:01.222Z,7.69
2024-03-03T03:45:33.180Z,7.74
2024-03-03T03:50:56.182Z,7.62
2024-03-03T03:56:20.174Z,7.56
2024-03-03T04:01:44.236Z,7.49
2024-03-03T04:07:07.275Z,7.41
2024-03-03T04:12:30.367Z,7.38
2024-03-03T04:17:54.208Z,7.32
2024-03-03T04:23:17.172Z,7.30
2024-03-03T04:28:40.164Z,7.24
2024-03-03T04:34:05.188Z,7.21
2024-03-03T04:39:28.185Z,7.16
2024-03-03T04:44:51.409Z,7.12
2024-03-03T04:50:15.183Z,7.05
2024-03-03T04:55:38.169Z,7.09
2024-03-03T05:01:01.273Z,7.10
2024-03-03T05:06:26.169Z,7.17
2024-03-03T05:11:50.188Z,7.11
2024-03-03T05:17:13.143Z,7.11
2024-03-03T05:22:37.175Z,7.08
2024-03-03T05:28:01.220Z,7.05
2024-03-03T05:33:24.170Z,7.02
2024-03-03T05:38:49.410Z,7.03
2024-03-03T05:44:12.162Z,7.04
2024-03-03T05:49:36.137Z,7.06
2024-03-03T05:55:00.218Z,7.10
2024-03-03T06:00:24.149Z,7.08
2024-03-03T06:05:47.157Z,7.09
2024-03-03T06:11:19.171Z,7.13
2024-03-03T06:16:43.165Z,7.14
2024-03-03T06:22:06.181Z,7.12
2024-03-03T06:27:30.133Z,7.24
2024-03-03T06:32:53.212Z,7.28
2024-03-03T06:38:16.148Z,7.31
2024-03-03T06:43:47.163Z,7.41
2024-03-03T06:49:10.256Z,7.56
2024-03-03T06:54:33.155Z,7.71
2024-03-03T06:59:58.109Z,7.85
2024-03-03T07:05:21.146Z,7.97
2024-03-03T07:10:44.207Z,8.09
2024-03-03T07:16:08.165Z,8.19
2024-03-03T07:21:31.194Z,8.33
2024-03-03T07:26:54.197Z,8.42
2024-03-03T07:32:19.156Z,8.67
2024-03-03T07:37:42.152Z,8.78
2024-03-03T07:43:05.208Z,8.94
2024-03-03T07:48:29.151Z,9.03
2024-03-03T07:53:52.139Z,9.20
2024-03-03T07:59:15.120Z,9.21
2024-03-03T08:04:40.096Z,9.42
2024-03-03T08:10:03.213Z,9.53
2024-03-03T08:15:26.125Z,9.76
2024-03-03T08:20:57.113Z,9.96
2024-03-03T08:26:20.153Z,10.11
2024-03-03T08:31:47.108Z,10.22
2024-03-03T08:37:12.160Z,10.39
2024-03-03T08:42:35.152Z,10.45
2024-03-03T08:47:58.172Z,10.61
2024-03-03T08:53:22.125Z,10.73
2024-03-03T08:58:45.128Z,10.95
2024-03-03T09:04:09.983Z,11.03
2024-03-03T09:09:37.140Z,11.26
2024-03-03T09:14:48.763Z,11.43
2024-03-03T09:19:51.793Z,11.55
2024-03-03T09:24:57.247Z,11.72
2024-03-03T09:30:00.155Z,11.86
2024-03-03T09:35:03.001Z,12.00
2024-03-03T09:40:15.335Z,12.20
2024-03-03T09:45:21.757Z,12.34
2024-03-03T09:50:25.201Z,12.50
2024-03-03T09:55:31.420Z,12.62
2024-03-03T10:00:35.983Z,12.76
2024-03-03T10:05:40.332Z,12.93
2024-03-03T10:10:49.993Z,13.12
2024-03-03T10:15:56.318Z,13.24
2024-03-03T10:21:00.180Z,13.49
2024-03-03T10:26:05.452Z,13.50
2024-03-03T10:31:16.877Z,13.81
2024-03-03T10:36:22.790Z,14.12
2024-03-03T10:41:26.918Z,14.45
2024-03-03T10:46:29.824Z,14.86
2024-03-03T10:51:32.867Z,15.10
2024-03-03T10:56:38.322Z,14.93
2024-03-03T11:01:41.398Z,15.34
2024-03-03T11:06:44.658Z,15.52
2024-03-03T11:11:52.666Z,15.90
2024-03-03T11:16:57.288Z,16.04
2024-03-03T11:22:02.168Z,16.67
2024-03-03T11:27:11.524Z,17.57
2024-03-03T11:32:15.128Z,18.33
2024-03-03T11:37:18.953Z,19.68
2024-03-03T11:42:25.010Z,20.85
2024-03-03T11:47:31.298Z,22.30
2024-03-03T11:52:42.763Z,24.45
2024-03-03T11:57:47.432Z,27.04
2024-03-03T12:02:50.482Z,29.31
2024-03-03T12:07:54.183Z,28.77
2024-03-03T12:12:59.726Z,29.34
2024-03-03T12:18:03.264Z,32.25
2024-03-03T12:23:06.381Z,32.48
2024-03-03T12:28:11.666Z,33.49
2024-03-03T12:33:15.628Z,34.65
2024-03-03T12:38:19.384Z,35.02
2024-03-03T12:43:25.312Z,36.27
2024-03-03T12:48:28.630Z,36.21
2024-03-03T12:53:39.799Z,36.56
2024-03-03T12:58:46.782Z,35.54
2024-03-03T13:03:52.854Z,32.32
2024-03-03T13:08:55.720Z,27.96
2024-03-03T13:14:00.289Z,25.80
2024-03-03T13:19:03.349Z,24.64
2024-03-03T13:24:16.763Z,24.68
2024-03-03T13:29:21.066Z,28.23
2024-03-03T13:34:23.885Z,31.63
2024-03-03T13:39:26.716Z,29.28
2024-03-03T13:44:31.169Z,26.85
2024-03-03T13:49:34.103Z,25.41
2024-03-03T13:54:37.193Z,24.90
2024-03-03T13:59:42.947Z,25.61
2024-03-03T14:04:45.972Z,28.21
2024-03-03T14:09:48.739Z,29.72
2024-03-03T14:14:52.968Z,27.82
2024-03-03T14:19:55.706Z,25.29
2024-03-03T14:25:04.613Z,23.43
2024-03-03T14:30:10.740Z,22.33
2024-03-03T14:35:13.624Z,21.58
2024-03-03T14:40:16.461Z,20.80
2024-03-03T14:45:22.172Z,20.34
2024-03-03T14:50:24.958Z,19.96
2024-03-03T14:55:27.856Z,19.77
2024-03-03T15:00:31.999Z,19.63
2024-03-03T15:05:34.753Z,19.48
2024-03-03T15:10:38.044Z,19.43
2024-03-03T15:15:42.410Z,19.46
2024-03-03T15:20:45.287Z,19.27
2024-03-03T15:25:48.187Z,19.21
2024-03-03T15:30:52.491Z,18.90
2024-03-03T15:35:57.078Z,18.66
2024-03-03T15:40:59.988Z,18.48
2024-03-03T15:46:04.179Z,18.21
2024-03-03T15:51:07.137Z,18.18
2024-03-03T15:56:10.001Z,18.01
2024-03-03T16:15:50.133Z,16.75
2024-03-03T16:20:53.024Z,16.27
2024-03-03T16:26:25.194Z,16.06
2024-03-03T16:31:29.415Z,15.77
2024-03-03T16:36:32.354Z,15.35
2024-03-03T16:41:35.765Z,15.03
2024-03-03T16:46:40.042Z,14.80
2024-03-03T16:51:42.824Z,14.48
2024-03-03T16:56:45.930Z,14.24
2024-03-03T17:01:50.254Z,13.97
2024-03-03T17:06:53.619Z,13.78
2024-03-03T17:11:56.463Z,13.69
2024-03-03T17:17:00.678Z,13.52
2024-03-03T17:22:03.553Z,13.41
2024-03-03T17:27:07.175Z,13.26
2024-03-03T17:32:11.411Z,13.10
2024-03-03T17:37:14.249Z,12.94
2024-03-03T17:42:17.795Z,12.79
2024-03-03T17:47:22.417Z,12.65
2024-03-03T17:52:26.449Z,12.54
2024-03-03T17:57:31.674Z,12.47
2024-03-03T18:02:36.586Z,12.43
2024-03-03T18:07:39.458Z,12.30
2024-03-03T18:12:42.290Z,12.21
2024-03-03T18:17:46.648Z,12.15
2024-03-03T18:22:49.711Z,12.07
2024-03-03T18:27:52.560Z,11.93
2024-03-03T18:32:56.881Z,11.84
2024-03-03T18:38:01.893Z,11.76
2024-03-03T18:43:05.212Z,11.61
2024-03-03T18:48:09.714Z,11.58
2024-03-03T18:53:14.151Z,11.48
2024-03-03T18:58:17.018Z,11.35
2024-03-03T19:03:21.121Z,11.25
2024-03-03T19:08:23.892Z,11.25
2024-03-03T19:13:26.729Z,11.31
2024-03-03T19:18:31.651Z,11.29
2024-03-03T19:23:34.656Z,11.20
2024-03-03T19:28:38.605Z,11.17
2024-03-03T19:33:42.875Z,11.08
2024-03-03T19:38:45.661Z,10.98
2024-03-03T19:43:49.805Z,10.86
2024-03-03T19:48:55.496Z,10.78
2024-03-03T19:53:58.627Z,10.62
2024-03-03T19:59:02.504Z,10.43
2024-03-03T20:04:07.475Z,10.37
2024-03-03T20:09:11.321Z,10.16
2024-03-03T20:14:14.401Z,9.98
2024-03-03T20:19:18.571Z,9.99
2024-03-03T20:24:21.611Z,9.90
2024-03-03T20:29:24.416Z,9.90
2024-03-03T20:34:29.730Z,9.86
2024-03-03T20:39:33.378Z,9.78
2024-03-03T20:44:36.362Z,9.75
2024-03-03T20:49:41.044Z,9.72
2024-03-03T20:54:46.034Z,9.54
2024-03-03T20:59:50.695Z,9.54
2024-03-03T21:04:55.279Z,9.49
2024-03-03T21:09:58.874Z,9.45
2024-03-03T21:15:01.798Z,9.33
2024-03-03T21:20:09.517Z,9.20
2024-03-03T21:25:14.843Z,9.27
2024-03-03T21:30:17.703Z,9.26
2024-03-03T21:35:21.795Z,9.17
2024-03-03T21:40:26.099Z,9.12
2024-03-03T21:45:28.875Z,9.11
2024-03-03T21:50:33.029Z,9.15
2024-03-03T21:55:36.517Z,9.06
2024-03-03T22:00:40.109Z,9.01
2024-03-03T22:05:44.295Z,8.94
2024-03-03T22:10:48.107Z,8.84
2024-03-03T22:15:50.971Z,8.76
2024-03-03T22:20:55.168Z,8.84
2024-03-03T22:25:58.603Z,8.76
2024-03-03T22:31:01.500Z,8.77
2024-03-03T22:36:08.116Z,8.72
2024-03-03T22:41:12.748Z,8.60
2024-03-03T22:46:17.507Z,8.55
2024-03-03T22:51:21.744Z,8.44
2024-03-03T22:56:24.699Z,8.27
2024-03-03T23:01:27.592Z,8.23
2024-03-03T23:06:31.764Z,8.23
2024-03-03T23:11:38.258Z,8.20
2024-03-03T23:16:41.522Z,8.05
2024-03-03T23:21:45.934Z,7.94
2024-03-03T23:26:49.930Z,7.95
2024-03-03T23:31:52.741Z,7.79
2024-03-03T23:36:56.853Z,7.76
2024-03-03T23:41:59.656Z,7.63
2024-03-03T23:47:02.447Z,7.52
2024-03-03T23:52:07.744Z,7.41
2024-03-03T23:57:10.878Z,7.27
